Time;durP1;ratioP1;P1;durP2;ratioP2;P2;SDS_P1;SDS_P2;PMS_P1;PMS_P2;Temp;Humidity;BMP_temperature;BMP_pressure;BME280_temperature;BME280_humidity;BME280_pressure;Samples;Min_cycle;Max_cycle;Signal;HPM_P1;HPM_P2
2022/12/06 00:02:22;;;;;;;;;;;3.60;99.90;;;;;;5048160;28;20256;-74
2022/12/06 00:04:52;;;;;;;;;;;3.50;99.90;;;;;;5048335;28;20300;-73
2022/12/06 00:07:18;;;;;;;;;;;3.50;99.90;;;;;;5039076;28;20116;-74
2022/12/06 00:09:47;;;;;;;;;;;3.60;99.90;;;;;;5059960;28;20015;-74
2022/12/06 00:12:19;;;;;;;;;;;3.50;99.90;;;;;;5054390;28;19928;-74
2022/12/06 00:14:49;;;;;;;;;;;3.50;99.90;;;;;;5051077;28;19928;-74
2022/12/06 00:17:26;;;;;;;;;;;3.60;99.90;;;;;;5050732;28;19987;-74
2022/12/06 00:19:56;;;;;;;;;;;3.60;99.90;;;;;;5065640;28;20107;-73
2022/12/06 00:22:23;;;;;;;;;;;3.50;99.90;;;;;;5044272;28;20067;-72
2022/12/06 00:24:54;;;;;;;;;;;3.50;99.90;;;;;;5042572;28;19932;-72
2022/12/06 00:27:24;;;;;;;;;;;3.50;99.90;;;;;;5042544;28;19998;-73
2022/12/06 00:29:51;;;;;;;;;;;3.50;99.90;;;;;;5046637;28;20089;-73
2022/12/06 00:32:22;;;;;;;;;;;3.50;99.90;;;;;;5045020;28;19928;-72
2022/12/06 00:34:54;;;;;;;;;;;3.50;99.90;;;;;;5041167;28;20171;-73
2022/12/06 00:37:22;;;;;;;;;;;3.50;99.90;;;;;;5045994;28;19935;-73
2022/12/06 00:39:53;;;;;;;;;;;3.50;99.90;;;;;;5043994;28;20006;-72
2022/12/06 00:42:33;;;;;;;;;;;3.50;99.90;;;;;;5042858;28;19935;-72
2022/12/06 00:45:00;;;;;;;;;;;3.30;99.90;;;;;;5045231;28;19951;-72
2022/12/06 00:47:29;;;;;;;;;;;3.50;99.90;;;;;;5037175;28;20398;-73
2022/12/06 00:49:58;;;;;;;;;;;3.50;99.90;;;;;;5045143;28;19928;-72
2022/12/06 00:55:18;;;;;;;;;;;3.50;99.90;;;;;;5051024;28;19935;-72
2022/12/06 00:57:45;;;;;;;;;;;3.50;99.90;;;;;;5037709;28;19928;-72
2022/12/06 01:00:13;;;;;;;;;;;3.50;99.90;;;;;;5046191;28;19932;-72
2022/12/06 01:02:40;;;;;;;;;;;3.40;99.90;;;;;;5041930;28;19952;-72
2022/12/06 01:05:08;;;;;;;;;;;3.40;99.90;;;;;;5038268;28;20252;-72
2022/12/06 01:07:34;;;;;;;;;;;3.40;99.90;;;;;;5037431;28;19929;-73
2022/12/06 01:10:04;;;;;;;;;;;3.40;99.90;;;;;;5049383;28;20147;-72
2022/12/06 01:12:33;;;;;;;;;;;3.40;99.90;;;;;;5042365;28;19943;-72
2022/12/06 01:15:01;;;;;;;;;;;3.40;99.90;;;;;;5028174;28;20195;-72
2022/12/06 01:17:40;;;;;;;;;;;;;;;;;;;;;
2022/12/06 01:22:53;;;;;;;;;;;3.40;99.90;;;;;;5039211;28;19950;-72
2022/12/06 01:25:25;;;;;;;;;;;3.40;99.90;;;;;;5044689;28;19950;-73
2022/12/06 01:27:59;;;;;;;;;;;3.40;99.90;;;;;;5044972;28;20396;-72
2022/12/06 01:30:33;;;;;;;;;;;3.40;99.90;;;;;;5039265;28;19951;-72
2022/12/06 01:33:07;;;;;;;;;;;3.40;99.90;;;;;;5047210;28;20185;-72
2022/12/06 01:35:42;;;;;;;;;;;3.40;99.90;;;;;;5049933;28;20049;-72
2022/12/06 01:38:20;;;;;;;;;;;3.40;99.90;;;;;;5039745;28;20561;-73
2022/12/06 01:40:48;;;;;;;;;;;3.40;99.90;;;;;;5045358;28;20249;-73
2022/12/06 01:43:36;;;;;;;;;;;3.40;99.90;;;;;;5055690;28;19939;-73
2022/12/06 01:46:07;;;;;;;;;;;3.40;99.90;;;;;;5063054;28;20031;-73
2022/12/06 01:48:44;;;;;;;;;;;3.40;99.90;;;;;;5079357;28;19935;-73
2022/12/06 01:51:13;;;;;;;;;;;3.40;99.90;;;;;;5062315;28;19932;-71
2022/12/06 01:53:41;;;;;;;;;;;3.40;99.90;;;;;;5060468;28;19939;-72
2022/12/06 01:56:08;;;;;;;;;;;3.40;99.90;;;;;;5056321;28;19933;-71
2022/12/06 01:58:43;;;;;;;;;;;3.40;99.90;;;;;;5061319;28;19935;-72
2022/12/06 02:01:10;;;;;;;;;;;3.40;99.90;;;;;;5068630;28;19932;-72
2022/12/06 02:03:37;;;;;;;;;;;3.30;99.90;;;;;;5061168;28;20024;-72
2022/12/06 02:06:06;;;;;;;;;;;3.30;99.90;;;;;;5058229;28;19932;-72
2022/12/06 02:08:33;;;;;;;;;;;3.30;99.90;;;;;;5042379;28;20387;-72
2022/12/06 02:11:03;;;;;;;;;;;3.40;99.90;;;;;;5042329;28;20425;-73
2022/12/06 02:13:41;;;;;;;;;;;3.30;99.90;;;;;;5044419;28;20261;-73
2022/12/06 02:16:14;;;;;;;;;;;3.20;99.90;;;;;;5051756;28;20000;-73
2022/12/06 02:18:48;;;;;;;;;;;3.30;99.90;;;;;;5048860;28;20011;-73
2022/12/06 02:21:20;;;;;;;;;;;3.30;99.90;;;;;;5039489;28;20250;-72
2022/12/06 02:24:08;;;;;;;;;;;3.30;99.90;;;;;;5042997;28;19933;-72
2022/12/06 02:26:36;;;;;;;;;;;3.30;99.90;;;;;;5043101;28;20410;-72
2022/12/06 02:29:24;;;;;;;;;;;3.30;99.90;;;;;;5039250;28;20847;-72
2022/12/06 02:32:02;;;;;;;;;;;3.30;99.90;;;;;;5026396;28;20273;-72
2022/12/06 02:34:32;;;;;;;;;;;3.30;99.90;;;;;;5038143;28;19960;-72
2022/12/06 02:37:01;;;;;;;;;;;3.30;99.90;;;;;;5039685;28;20104;-72
2022/12/06 02:39:47;;;;;;;;;;;3.30;99.90;;;;;;5041111;28;20584;-72
2022/12/06 02:42:15;;;;;;;;;;;3.30;99.90;;;;;;5037503;28;20117;-73
2022/12/06 02:44:56;;;;;;;;;;;3.30;99.90;;;;;;5039693;28;19940;-73
2022/12/06 02:47:42;;;;;;;;;;;3.30;99.90;;;;;;5041890;28;19936;-73
2022/12/06 02:50:13;;;;;;;;;;;3.30;99.90;;;;;;5042280;28;20243;-73
2022/12/06 02:52:43;;;;;;;;;;;3.30;99.90;;;;;;5041102;28;19971;-73
2022/12/06 02:55:16;;;;;;;;;;;3.30;99.90;;;;;;5044742;28;20327;-73
2022/12/06 02:57:45;;;;;;;;;;;3.30;99.90;;;;;;5037974;28;20593;-72
2022/12/06 03:00:28;;;;;;;;;;;3.30;99.90;;;;;;5050031;28;20559;-72
2022/12/06 03:03:03;;;;;;;;;;;3.20;99.90;;;;;;5054064;28;20050;-71
2022/12/06 03:05:34;;;;;;;;;;;3.30;99.90;;;;;;5055328;28;20028;-71
2022/12/06 03:08:06;;;;;;;;;;;3.30;99.90;;;;;;5046981;28;19939;-72
2022/12/06 03:10:44;;;;;;;;;;;3.30;99.90;;;;;;5050281;28;19928;-72
2022/12/06 03:13:17;;;;;;;;;;;3.30;99.90;;;;;;5047017;28;20578;-73
2022/12/06 03:16:05;;;;;;;;;;;3.30;99.90;;;;;;5048112;28;19935;-73
2022/12/06 03:18:53;;;;;;;;;;;3.30;99.90;;;;;;5046922;28;20082;-73
2022/12/06 03:21:23;;;;;;;;;;;3.30;99.90;;;;;;5047828;28;19932;-73
2022/12/06 03:23:53;;;;;;;;;;;3.30;99.90;;;;;;5041690;28;20031;-73
2022/12/06 03:26:22;;;;;;;;;;;3.20;99.90;;;;;;5045463;28;20023;-72
2022/12/06 03:28:59;;;;;;;;;;;3.20;99.90;;;;;;5047874;28;20614;-73
2022/12/06 03:31:28;;;;;;;;;;;3.30;99.90;;;;;;5050385;28;19932;-72
2022/12/06 03:34:04;;;;;;;;;;;3.20;99.90;;;;;;5047005;28;20254;-73
2022/12/06 03:36:33;;;;;;;;;;;3.30;99.90;;;;;;5044834;28;20286;-72
2022/12/06 03:39:05;;;;;;;;;;;3.20;99.90;;;;;;5041395;28;20549;-72
2022/12/06 03:41:36;;;;;;;;;;;3.20;99.90;;;;;;5052056;28;20251;-72
2022/12/06 03:44:04;;;;;;;;;;;3.20;99.90;;;;;;5049802;28;20417;-72
2022/12/06 03:46:35;;;;;;;;;;;3.20;99.90;;;;;;5053562;28;20528;-72
2022/12/06 03:52:08;;;;;;;;;;;3.20;99.90;;;;;;5048280;28;20438;-73
2022/12/06 03:54:40;;;;;;;;;;;3.20;99.90;;;;;;5049507;28;20074;-73
2022/12/06 03:57:10;;;;;;;;;;;3.20;99.90;;;;;;5043051;28;20474;-72
2022/12/06 03:59:37;;;;;;;;;;;3.20;99.90;;;;;;5048970;28;20185;-73
2022/12/06 04:02:07;;;;;;;;;;;3.20;99.90;;;;;;5048052;28;19932;-72
2022/12/06 04:04:39;;;;;;;;;;;3.20;99.90;;;;;;5044272;28;19928;-72
2022/12/06 04:07:22;;;;;;;;;;;3.20;99.90;;;;;;5047469;28;20453;-74
2022/12/06 04:10:01;;;;;;;;;;;3.20;99.90;;;;;;5043377;28;19940;-73
2022/12/06 04:15:23;;;;;;;;;;;3.20;99.90;;;;;;5041503;28;20123;-73
2022/12/06 04:18:12;;;;;;;;;;;3.10;99.90;;;;;;5042335;28;19978;-73
2022/12/06 04:23:42;;;;;;;;;;;3.20;99.90;;;;;;5037969;28;19933;-72
2022/12/06 04:26:18;;;;;;;;;;;3.10;99.90;;;;;;5038575;28;20603;-73
2022/12/06 04:40:00;;;;;;;;;;;3.10;99.90;;;;;;5024395;28;20085;-73
2022/12/06 04:45:28;;;;;;;;;;;3.10;99.90;;;;;;4989300;28;20010;-73
2022/12/06 04:48:02;;;;;;;;;;;3.10;99.90;;;;;;5020884;28;20086;-73
2022/12/06 04:50:30;;;;;;;;;;;3.10;99.90;;;;;;5022395;28;20462;-73
2022/12/06 04:53:02;;;;;;;;;;;3.10;99.90;;;;;;5021895;28;20109;-72
2022/12/06 04:55:38;;;;;;;;;;;3.10;99.90;;;;;;5023719;28;20273;-72
2022/12/06 04:58:07;;;;;;;;;;;3.10;99.90;;;;;;5023666;28;20231;-72
2022/12/06 05:00:34;;;;;;;;;;;3.10;99.90;;;;;;5026159;28;19986;-72
2022/12/06 05:03:02;;;;;;;;;;;3.10;99.90;;;;;;5025721;28;20584;-72
2022/12/06 05:05:32;;;;;;;;;;;3.20;99.90;;;;;;5016216;28;19933;-72
2022/12/06 05:08:06;;;;;;;;;;;3.10;99.90;;;;;;5021815;28;19928;-72
2022/12/06 05:10:42;;;;;;;;;;;3.10;99.90;;;;;;5022864;28;19928;-72
2022/12/06 05:13:16;;;;;;;;;;;3.10;99.90;;;;;;5015423;28;20188;-73
2022/12/06 05:16:01;;;;;;;;;;;3.10;99.90;;;;;;5020297;28;20596;-73
2022/12/06 05:18:44;;;;;;;;;;;3.10;99.90;;;;;;5025168;28;19990;-72
2022/12/06 05:21:13;;;;;;;;;;;3.10;99.90;;;;;;5018394;28;20272;-73
2022/12/06 05:23:44;;;;;;;;;;;3.10;99.90;;;;;;5022533;28;20354;-72
2022/12/06 05:26:38;;;;;;;;;;;3.10;99.90;;;;;;5022458;28;19932;-73
2022/12/06 05:34:30;;;;;;;;;;;3.10;99.90;;;;;;5014610;28;20105;-76
2022/12/06 05:37:00;;;;;;;;;;;3.10;99.90;;;;;;5017091;28;19961;-74
2022/12/06 05:39:41;;;;;;;;;;;3.10;99.90;;;;;;5024684;28;20075;-80
2022/12/06 05:42:10;;;;;;;;;;;3.10;99.90;;;;;;5024447;28;20097;-79
2022/12/06 05:44:37;;;;;;;;;;;3.00;99.90;;;;;;5019993;28;20189;-88
2022/12/06 05:47:17;;;;;;;;;;;3.00;99.90;;;;;;5027162;28;19932;-72
2022/12/06 05:49:47;;;;;;;;;;;3.00;99.90;;;;;;5023764;28;20379;-72
2022/12/06 05:52:14;;;;;;;;;;;3.00;99.90;;;;;;5020927;28;20188;-71
2022/12/06 05:54:42;;;;;;;;;;;3.00;99.90;;;;;;5031478;28;20223;-78
2022/12/06 05:57:10;;;;;;;;;;;3.00;99.90;;;;;;5023978;28;19928;-75
2022/12/06 05:59:39;;;;;;;;;;;3.00;99.90;;;;;;5023450;28;20364;-85
2022/12/06 06:02:12;;;;;;;;;;;3.00;99.90;;;;;;5021501;28;19939;-72
2022/12/06 06:04:39;;;;;;;;;;;3.00;99.90;;;;;;5019912;28;20206;-75
2022/12/06 06:07:05;;;;;;;;;;;3.00;99.90;;;;;;5023469;28;19936;-72
2022/12/06 06:09:32;;;;;;;;;;;3.00;99.90;;;;;;5020667;28;19929;-72
2022/12/06 06:12:02;;;;;;;;;;;3.00;99.90;;;;;;5020054;28;19936;-71
2022/12/06 06:14:34;;;;;;;;;;;2.90;99.90;;;;;;5037163;28;20705;-72
2022/12/06 06:17:04;;;;;;;;;;;2.90;99.90;;;;;;5017168;28;20101;-73
2022/12/06 06:19:45;;;;;;;;;;;2.90;99.90;;;;;;5024295;28;19994;-72
2022/12/06 06:22:29;;;;;;;;;;;2.80;99.90;;;;;;5026350;28;19940;-72
2022/12/06 06:24:57;;;;;;;;;;;2.90;99.90;;;;;;5026485;28;20692;-72
2022/12/06 06:27:28;;;;;;;;;;;2.90;99.90;;;;;;5017878;28;19933;-72
2022/12/06 06:30:00;;;;;;;;;;;2.90;99.90;;;;;;5023067;28;19928;-73
2022/12/06 06:32:36;;;;;;;;;;;2.80;99.90;;;;;;5012519;28;20173;-73
2022/12/06 06:35:03;;;;;;;;;;;2.80;99.90;;;;;;5022199;28;20157;-73
2022/12/06 06:37:33;;;;;;;;;;;2.80;99.90;;;;;;5025632;28;19932;-72
2022/12/06 06:40:08;;;;;;;;;;;2.80;99.90;;;;;;5020132;28;20039;-73
2022/12/06 06:42:38;;;;;;;;;;;2.80;99.90;;;;;;5009426;28;19971;-73
2022/12/06 06:45:12;;;;;;;;;;;2.80;99.90;;;;;;5019820;28;20151;-73
2022/12/06 06:47:41;;;;;;;;;;;2.80;99.90;;;;;;5018731;28;19932;-72
2022/12/06 06:50:11;;;;;;;;;;;2.90;99.90;;;;;;5015579;28;20010;-72
2022/12/06 06:52:42;;;;;;;;;;;2.90;99.90;;;;;;5018873;28;19990;-72
2022/12/06 06:55:18;;;;;;;;;;;2.90;99.90;;;;;;5021513;28;19939;-72
2022/12/06 06:57:56;;;;;;;;;;;2.90;99.90;;;;;;5018335;28;19936;-72
2022/12/06 07:00:29;;;;;;;;;;;2.90;99.90;;;;;;5023022;28;20442;-72
2022/12/06 07:02:59;;;;;;;;;;;2.90;99.90;;;;;;5026084;28;20441;-72
2022/12/06 07:05:28;;;;;;;;;;;2.80;99.90;;;;;;5024496;28;19928;-72
2022/12/06 07:08:00;;;;;;;;;;;2.90;99.90;;;;;;5024276;28;19936;-72
2022/12/06 07:10:30;;;;;;;;;;;2.80;99.90;;;;;;5029914;28;20318;-71
2022/12/06 07:13:00;;;;;;;;;;;2.80;99.90;;;;;;5029699;28;19928;-72
2022/12/06 07:15:38;;;;;;;;;;;2.80;99.90;;;;;;5027316;28;20074;-72
2022/12/06 07:18:05;;;;;;;;;;;2.80;99.90;;;;;;5027538;28;19935;-72
2022/12/06 07:20:32;;;;;;;;;;;2.80;99.90;;;;;;5028969;28;20513;-72
2022/12/06 07:23:05;;;;;;;;;;;2.80;99.90;;;;;;5031910;28;20197;-71
2022/12/06 07:25:36;;;;;;;;;;;2.80;99.90;;;;;;5023068;28;19939;-72
2022/12/06 07:28:03;;;;;;;;;;;2.80;99.90;;;;;;5031461;28;20130;-72
2022/12/06 07:30:32;;;;;;;;;;;2.80;99.90;;;;;;5028071;28;20173;-72
2022/12/06 07:33:02;;;;;;;;;;;2.80;99.90;;;;;;5026446;28;19955;-72
2022/12/06 07:35:32;;;;;;;;;;;2.80;99.90;;;;;;5029417;28;20574;-72
2022/12/06 07:38:01;;;;;;;;;;;2.80;99.90;;;;;;5021728;28;20620;-71
2022/12/06 07:40:31;;;;;;;;;;;2.80;99.90;;;;;;5028031;28;19928;-72
2022/12/06 07:45:44;;;;;;;;;;;2.80;99.90;;;;;;5029680;28;20117;-72
2022/12/06 07:48:12;;;;;;;;;;;2.80;99.90;;;;;;5026515;28;20042;-72
2022/12/06 07:50:46;;;;;;;;;;;2.80;99.90;;;;;;5028553;28;19928;-72
2022/12/06 07:53:14;;;;;;;;;;;2.80;99.90;;;;;;5027014;28;20136;-72
2022/12/06 07:55:48;;;;;;;;;;;2.80;99.90;;;;;;5024394;28;20034;-72
2022/12/06 07:58:15;;;;;;;;;;;2.80;99.90;;;;;;5022964;28;20051;-71
2022/12/06 08:00:42;;;;;;;;;;;2.80;99.90;;;;;;5019934;28;20759;-72
2022/12/06 08:03:16;;;;;;;;;;;2.80;99.90;;;;;;5023587;28;19990;-72
2022/12/06 08:05:50;;;;;;;;;;;2.80;99.90;;;;;;5028416;28;19951;-71
2022/12/06 08:08:23;;;;;;;;;;;2.80;99.90;;;;;;5033584;28;19928;-72
2022/12/06 08:10:50;;;;;;;;;;;2.80;99.90;;;;;;5017891;28;20043;-72
2022/12/06 08:13:18;;;;;;;;;;;2.80;99.90;;;;;;5027797;28;20403;-72
2022/12/06 08:15:45;;;;;;;;;;;2.80;99.90;;;;;;5031904;28;19939;-73
2022/12/06 08:18:14;;;;;;;;;;;2.80;99.90;;;;;;5029331;28;20126;-72
2022/12/06 08:20:44;;;;;;;;;;;2.80;99.90;;;;;;5021439;28;20083;-72
2022/12/06 08:23:11;;;;;;;;;;;2.80;99.90;;;;;;5028968;28;20845;-72
2022/12/06 08:25:38;;;;;;;;;;;2.80;99.90;;;;;;5026541;28;20835;-72
2022/12/06 08:28:08;;;;;;;;;;;2.80;99.90;;;;;;5024078;28;20053;-72
2022/12/06 08:30:35;;;;;;;;;;;2.70;99.90;;;;;;5022016;28;20002;-72
2022/12/06 08:33:02;;;;;;;;;;;2.70;99.90;;;;;;5025622;28;19935;-72
2022/12/06 08:35:30;;;;;;;;;;;2.80;99.90;;;;;;5021693;28;20035;-73
2022/12/06 08:37:58;;;;;;;;;;;2.80;99.90;;;;;;5022867;28;19928;-73
2022/12/06 08:40:32;;;;;;;;;;;2.80;99.90;;;;;;5024998;28;19928;-74
2022/12/06 08:42:59;;;;;;;;;;;2.80;99.90;;;;;;5026202;28;19943;-73
2022/12/06 08:45:29;;;;;;;;;;;2.80;99.90;;;;;;5023687;28;19983;-71
2022/12/06 08:47:55;;;;;;;;;;;2.80;99.90;;;;;;5023402;28;20233;-72
2022/12/06 08:50:22;;;;;;;;;;;2.80;99.90;;;;;;5021482;28;19940;-72
2022/12/06 08:52:54;;;;;;;;;;;2.80;99.90;;;;;;5022729;28;19933;-71
2022/12/06 08:55:24;;;;;;;;;;;2.80;99.90;;;;;;5026039;28;19928;-72
2022/12/06 08:57:51;;;;;;;;;;;2.70;99.90;;;;;;5025460;28;19936;-71
2022/12/06 09:00:18;;;;;;;;;;;2.80;99.90;;;;;;5031672;28;19935;-72
2022/12/06 09:02:46;;;;;;;;;;;2.80;99.90;;;;;;5020688;28;20751;-72
2022/12/06 09:05:16;;;;;;;;;;;2.80;99.90;;;;;;5027201;28;19963;-72
2022/12/06 09:07:46;;;;;;;;;;;2.80;99.90;;;;;;5027299;28;20122;-72
2022/12/06 09:10:16;;;;;;;;;;;2.80;99.90;;;;;;5024786;28;19928;-71
2022/12/06 09:12:50;;;;;;;;;;;2.80;99.90;;;;;;5023009;28;19928;-72
2022/12/06 09:15:20;;;;;;;;;;;2.80;99.90;;;;;;5017177;28;20118;-76
2022/12/06 09:17:48;;;;;;;;;;;2.80;99.90;;;;;;5022879;28;20027;-72
2022/12/06 09:20:18;;;;;;;;;;;2.80;99.90;;;;;;5019356;28;20087;-72
2022/12/06 09:22:48;;;;;;;;;;;2.70;99.90;;;;;;5023936;28;20140;-72
2022/12/06 09:25:19;;;;;;;;;;;2.80;99.90;;;;;;5023578;28;20111;-72
2022/12/06 09:27:49;;;;;;;;;;;2.70;99.90;;;;;;5018685;28;20736;-72
2022/12/06 09:30:17;;;;;;;;;;;2.80;99.90;;;;;;5017094;28;19986;-72
2022/12/06 09:32:53;;;;;;;;;;;2.80;99.90;;;;;;5027985;28;20028;-72
2022/12/06 09:35:21;;;;;;;;;;;2.80;99.90;;;;;;5029335;28;20777;-72
2022/12/06 09:37:48;;;;;;;;;;;2.90;99.90;;;;;;5017001;28;20594;-72
2022/12/06 09:40:19;;;;;;;;;;;2.80;99.90;;;;;;5023498;28;19947;-72
2022/12/06 09:42:58;;;;;;;;;;;2.80;99.90;;;;;;5019422;28;20128;-72
2022/12/06 09:45:33;;;;;;;;;;;2.80;99.90;;;;;;5030795;28;20421;-72
2022/12/06 09:48:13;;;;;;;;;;;2.80;99.90;;;;;;5025178;28;20357;-72
2022/12/06 09:50:46;;;;;;;;;;;2.80;99.90;;;;;;5018062;28;19925;-72
2022/12/06 09:53:26;;;;;;;;;;;2.80;99.90;;;;;;5021719;28;20296;-72
2022/12/06 09:56:06;;;;;;;;;;;2.80;99.90;;;;;;5022439;28;19928;-72
2022/12/06 09:58:50;;;;;;;;;;;2.80;99.90;;;;;;5020960;28;19939;-72
2022/12/06 10:01:24;;;;;;;;;;;2.80;99.90;;;;;;5019322;28;20011;-72
2022/12/06 10:04:01;;;;;;;;;;;2.80;99.90;;;;;;5028025;28;19929;-73
2022/12/06 10:06:36;;;;;;;;;;;2.80;99.90;;;;;;5017620;28;19933;-72
2022/12/06 10:09:15;;;;;;;;;;;2.80;99.90;;;;;;5019783;28;20274;-72
2022/12/06 10:12:04;;;;;;;;;;;2.80;99.90;;;;;;5014687;28;19932;-71
2022/12/06 10:14:43;;;;;;;;;;;2.80;99.90;;;;;;4994558;28;20631;-72
2022/12/06 10:17:22;;;;;;;;;;;2.80;99.90;;;;;;5032175;28;20078;-72
2022/12/06 10:19:58;;;;;;;;;;;2.80;99.90;;;;;;5019271;28;21411;-72
2022/12/06 10:22:34;;;;;;;;;;;2.80;99.90;;;;;;5017934;28;20048;-72
2022/12/06 10:25:18;;;;;;;;;;;2.90;99.90;;;;;;5018457;28;20074;-72
2022/12/06 10:27:50;;;;;;;;;;;2.90;99.90;;;;;;5018997;28;19929;-72
2022/12/06 10:30:19;;;;;;;;;;;2.90;99.90;;;;;;5023271;28;19928;-72
2022/12/06 10:33:10;;;;;;;;;;;2.90;99.90;;;;;;5021401;28;20065;-72
2022/12/06 10:35:40;;;;;;;;;;;2.90;99.90;;;;;;5016854;28;20223;-72
2022/12/06 10:38:14;;;;;;;;;;;2.90;99.90;;;;;;5024326;28;19936;-73
2022/12/06 10:40:48;;;;;;;;;;;2.90;99.90;;;;;;5024579;28;20039;-72
2022/12/06 10:43:22;;;;;;;;;;;3.00;99.90;;;;;;5025169;28;20011;-72
2022/12/06 10:48:53;;;;;;;;;;;2.90;99.90;;;;;;5020877;28;19993;-72
2022/12/06 10:54:10;;;;;;;;;;;2.90;99.90;;;;;;5037904;28;19933;-73
2022/12/06 10:56:44;;;;;;;;;;;2.90;99.90;;;;;;5015085;28;20102;-74
2022/12/06 10:59:20;;;;;;;;;;;2.90;99.90;;;;;;5023515;28;19939;-72
2022/12/06 11:01:52;;;;;;;;;;;2.90;99.90;;;;;;5021974;28;20634;-72
2022/12/06 11:04:25;;;;;;;;;;;2.90;99.90;;;;;;5030301;28;20530;-72
2022/12/06 11:06:56;;;;;;;;;;;3.00;99.90;;;;;;5028871;28;19939;-72
2022/12/06 11:09:33;;;;;;;;;;;3.00;99.90;;;;;;5025059;28;19928;-72
2022/12/06 11:12:11;;;;;;;;;;;3.00;99.90;;;;;;5019738;28;20314;-72
2022/12/06 11:14:41;;;;;;;;;;;3.00;99.90;;;;;;5013491;28;20010;-72
2022/12/06 11:17:24;;;;;;;;;;;3.00;99.90;;;;;;5020174;28;20451;-72
2022/12/06 11:19:52;;;;;;;;;;;3.00;99.90;;;;;;5028331;28;20461;-72
2022/12/06 11:22:24;;;;;;;;;;;3.00;99.90;;;;;;5024504;28;19932;-72
2022/12/06 11:25:10;;;;;;;;;;;3.00;99.90;;;;;;5025666;28;20025;-72
2022/12/06 11:27:39;;;;;;;;;;;3.00;99.90;;;;;;5024851;28;20362;-72
2022/12/06 11:30:13;;;;;;;;;;;3.00;99.90;;;;;;5023261;28;19936;-72
2022/12/06 11:32:42;;;;;;;;;;;3.00;99.90;;;;;;5025421;28;20723;-72
2022/12/06 11:35:12;;;;;;;;;;;2.90;99.90;;;;;;5025355;28;20039;-73
2022/12/06 11:37:39;;;;;;;;;;;3.00;99.90;;;;;;5027801;28;20422;-72
2022/12/06 11:40:18;;;;;;;;;;;3.00;99.90;;;;;;5026610;28;20372;-72
2022/12/06 11:42:48;;;;;;;;;;;3.00;99.90;;;;;;5024031;28;20175;-72
2022/12/06 11:45:17;;;;;;;;;;;3.00;99.90;;;;;;5020663;28;19955;-72
2022/12/06 11:47:48;;;;;;;;;;;3.00;99.90;;;;;;5025113;28;20611;-73
2022/12/06 11:50:19;;;;;;;;;;;3.00;99.90;;;;;;5024990;28;19932;-72
2022/12/06 11:52:52;;;;;;;;;;;3.00;99.90;;;;;;5022539;28;19935;-73
2022/12/06 11:55:20;;;;;;;;;;;3.00;99.90;;;;;;5024302;28;19932;-72
2022/12/06 11:58:00;;;;;;;;;;;3.10;99.90;;;;;;5021676;28;20055;-72
2022/12/06 12:00:30;;;;;;;;;;;3.10;99.90;;;;;;5031974;28;19980;-72
2022/12/06 12:03:00;;;;;;;;;;;3.10;99.90;;;;;;5029249;28;20219;-72
2022/12/06 12:05:33;;;;;;;;;;;3.00;99.90;;;;;;5026848;28;19984;-72
2022/12/06 12:08:12;;;;;;;;;;;3.10;99.90;;;;;;5021677;28;19928;-72
2022/12/06 12:10:48;;;;;;;;;;;3.10;99.90;;;;;;5024941;28;20390;-72
2022/12/06 12:16:17;;;;;;;;;;;3.10;99.90;;;;;;5022884;28;19924;-73
2022/12/06 12:19:01;;;;;;;;;;;3.00;99.90;;;;;;5018444;28;19933;-75
2022/12/06 12:21:31;;;;;;;;;;;3.10;99.90;;;;;;5024307;28;19928;-72
2022/12/06 12:23:58;;;;;;;;;;;3.10;99.90;;;;;;5028398;28;21895;-79
2022/12/06 12:26:34;;;;;;;;;;;3.10;99.90;;;;;;5023301;28;20524;-71
2022/12/06 12:29:16;;;;;;;;;;;3.10;99.90;;;;;;5022706;28;19964;-72
2022/12/06 12:31:56;;;;;;;;;;;3.10;99.90;;;;;;5027348;28;20414;-72
2022/12/06 12:34:33;;;;;;;;;;;3.10;99.90;;;;;;5023875;28;20169;-71
2022/12/06 12:37:09;;;;;;;;;;;3.10;99.90;;;;;;5022125;28;20484;-72
2022/12/06 12:39:38;;;;;;;;;;;3.10;99.90;;;;;;5027382;28;20060;-72
2022/12/06 12:42:28;;;;;;;;;;;3.10;99.90;;;;;;5029568;28;19932;-79
2022/12/06 12:44:59;;;;;;;;;;;3.10;99.90;;;;;;5020217;28;20235;-71
2022/12/06 12:47:26;;;;;;;;;;;3.10;99.90;;;;;;5015708;28;20701;-71
2022/12/06 12:50:06;;;;;;;;;;;3.10;99.90;;;;;;5021799;28;20002;-72
2022/12/06 12:52:41;;;;;;;;;;;3.10;99.90;;;;;;5027414;28;20193;-72
2022/12/06 12:55:15;;;;;;;;;;;3.20;99.90;;;;;;5028062;28;20018;-72
2022/12/06 12:57:48;;;;;;;;;;;3.10;99.90;;;;;;5026585;28;19932;-72
2022/12/06 13:00:21;;;;;;;;;;;3.10;99.90;;;;;;5027487;28;19968;-71
2022/12/06 13:02:51;;;;;;;;;;;3.10;99.90;;;;;;5020147;28;19932;-71
2022/12/06 13:05:33;;;;;;;;;;;3.10;99.90;;;;;;5025297;28;20833;-73
2022/12/06 13:08:12;;;;;;;;;;;3.10;99.90;;;;;;5029485;28;19929;-72
2022/12/06 13:10:46;;;;;;;;;;;3.10;99.90;;;;;;5025532;28;20589;-73
2022/12/06 13:13:22;;;;;;;;;;;3.10;99.90;;;;;;5023744;28;20201;-71
2022/12/06 13:15:53;;;;;;;;;;;3.20;99.90;;;;;;5026479;28;20481;-72
2022/12/06 13:18:42;;;;;;;;;;;3.10;99.90;;;;;;5027238;28;19928;-71
2022/12/06 13:21:20;;;;;;;;;;;3.20;99.90;;;;;;5019851;28;19928;-72
2022/12/06 13:23:56;;;;;;;;;;;3.20;99.90;;;;;;5026307;28;20024;-72
2022/12/06 13:26:26;;;;;;;;;;;3.10;99.90;;;;;;5015913;28;20091;-72
2022/12/06 13:28:59;;;;;;;;;;;3.20;99.90;;;;;;5022670;28;22223;-73
2022/12/06 13:31:45;;;;;;;;;;;3.20;99.90;;;;;;5028870;28;19935;-72
2022/12/06 13:34:18;;;;;;;;;;;3.20;99.90;;;;;;5028023;28;20768;-73
2022/12/06 13:36:45;;;;;;;;;;;3.20;99.90;;;;;;5020621;28;19928;-72
2022/12/06 13:39:37;;;;;;;;;;;3.20;99.90;;;;;;5027741;28;20120;-72
2022/12/06 13:42:40;;;;;;;;;;;3.20;99.90;;;;;;5019640;28;19939;-71
2022/12/06 13:48:39;;;;;;;;;;;3.20;99.90;;;;;;5014757;28;19935;-71
2022/12/06 13:51:18;;;;;;;;;;;3.20;99.90;;;;;;5018881;28;20474;-72
2022/12/06 13:54:06;;;;;;;;;;;3.20;99.90;;;;;;5020842;28;20271;-72
2022/12/06 13:56:38;;;;;;;;;;;3.30;99.90;;;;;;5020912;28;20262;-73
2022/12/06 13:59:26;;;;;;;;;;;3.20;99.90;;;;;;5021872;28;20184;-72
2022/12/06 14:01:53;;;;;;;;;;;3.30;99.90;;;;;;5016094;28;20123;-72
2022/12/06 14:04:38;;;;;;;;;;;3.30;99.90;;;;;;5015478;28;19980;-71
2022/12/06 14:07:06;;;;;;;;;;;3.30;99.90;;;;;;5021804;28;20499;-72
2022/12/06 14:09:39;;;;;;;;;;;3.30;99.90;;;;;;5020744;28;20102;-70
2022/12/06 14:12:12;;;;;;;;;;;3.30;99.90;;;;;;5015167;28;20015;-72
2022/12/06 14:14:39;;;;;;;;;;;3.30;99.90;;;;;;5018378;28;19951;-72
2022/12/06 14:17:14;;;;;;;;;;;3.30;99.90;;;;;;5018298;28;22136;-71
2022/12/06 14:19:43;;;;;;;;;;;3.30;99.90;;;;;;5023942;28;20096;-71
2022/12/06 14:22:18;;;;;;;;;;;3.30;99.90;;;;;;5020477;28;19963;-71
2022/12/06 14:24:56;;;;;;;;;;;3.30;99.90;;;;;;5019888;28;20181;-71
2022/12/06 14:27:29;;;;;;;;;;;3.30;99.90;;;;;;5017388;28;20234;-71
2022/12/06 14:30:15;;;;;;;;;;;3.30;99.90;;;;;;5015908;28;20484;-72
2022/12/06 14:32:54;;;;;;;;;;;3.30;99.90;;;;;;5009401;28;19940;-72
2022/12/06 14:35:22;;;;;;;;;;;3.30;99.90;;;;;;5018394;28;19924;-72
2022/12/06 14:37:51;;;;;;;;;;;3.40;99.90;;;;;;5021224;28;20124;-72
2022/12/06 14:40:22;;;;;;;;;;;3.40;99.90;;;;;;5018158;28;19929;-72
2022/12/06 14:43:04;;;;;;;;;;;3.30;99.90;;;;;;5024921;28;19933;-71
2022/12/06 14:45:32;;;;;;;;;;;3.30;99.90;;;;;;5020147;28;20115;-71
2022/12/06 14:48:05;;;;;;;;;;;3.30;99.90;;;;;;5021520;28;19991;-72
2022/12/06 14:50:38;;;;;;;;;;;3.40;99.90;;;;;;5026247;28;20540;-72
2022/12/06 14:53:09;;;;;;;;;;;3.40;99.90;;;;;;5019079;28;19959;-72
2022/12/06 14:55:39;;;;;;;;;;;3.40;99.90;;;;;;5016409;28;19929;-71
2022/12/06 14:58:22;;;;;;;;;;;3.40;99.90;;;;;;5016143;28;19928;-79
2022/12/06 15:00:52;;;;;;;;;;;3.50;99.90;;;;;;5021346;28;20153;-77
2022/12/06 15:03:38;;;;;;;;;;;3.40;99.90;;;;;;5021520;28;20019;-73
2022/12/06 15:06:14;;;;;;;;;;;3.40;99.90;;;;;;5036697;22;19954;-76
2022/12/06 15:08:41;;;;;;;;;;;3.40;99.90;;;;;;5063819;28;20050;-72
2022/12/06 15:14:12;;;;;;;;;;;3.40;99.90;;;;;;5065225;27;19924;-72
2022/12/06 15:16:48;;;;;;;;;;;3.40;99.90;;;;;;5058653;28;20122;-72
2022/12/06 15:19:18;;;;;;;;;;;3.40;99.90;;;;;;5067628;28;19927;-72
2022/12/06 15:21:44;;;;;;;;;;;3.40;99.90;;;;;;5059389;28;19935;-71
2022/12/06 15:24:25;;;;;;;;;;;3.40;99.90;;;;;;5063981;28;20117;-72
2022/12/06 15:26:53;;;;;;;;;;;3.40;99.90;;;;;;5066033;28;20026;-71
2022/12/06 15:29:25;;;;;;;;;;;3.40;99.90;;;;;;5062766;28;20014;-72
2022/12/06 15:32:02;;;;;;;;;;;3.40;99.90;;;;;;5066187;28;19928;-72
2022/12/06 15:34:29;;;;;;;;;;;3.40;99.90;;;;;;5060289;28;19928;-72
2022/12/06 15:37:00;;;;;;;;;;;3.50;99.90;;;;;;5059477;28;19932;-72
2022/12/06 15:39:34;;;;;;;;;;;3.50;99.90;;;;;;5060363;28;19928;-72
2022/12/06 15:42:03;;;;;;;;;;;3.40;99.90;;;;;;5059540;28;19931;-72
2022/12/06 15:44:37;;;;;;;;;;;3.50;99.90;;;;;;5065599;28;19931;-72
2022/12/06 15:47:04;;;;;;;;;;;3.40;99.90;;;;;;5059845;28;19932;-73
2022/12/06 15:49:32;;;;;;;;;;;3.40;99.90;;;;;;5063668;27;20018;-74
2022/12/06 15:52:02;;;;;;;;;;;3.40;99.90;;;;;;5063875;28;19932;-72
2022/12/06 15:54:34;;;;;;;;;;;3.40;99.90;;;;;;5058803;27;20085;-72
2022/12/06 15:57:10;;;;;;;;;;;3.40;99.90;;;;;;5067237;28;19923;-72